sensor_id;sensor_type;location;lat;lon;timestamp;temperature;humidity
13375;DHT22;6756;51.354;15.754;2023-07-13T00:04:00;18.50;1.00
13375;DHT22;6756;51.354;15.754;2023-07-13T00:08:00;18.50;1.00
13375;DHT22;6756;51.354;15.754;2023-07-13T00:12:01;18.40;1.00
13375;DHT22;6756;51.354;15.754;2023-07-13T00:16:03;18.40;1.00
13375;DHT22;6756;51.354;15.754;2023-07-13T00:20:04;18.30;1.00
13375;DHT22;6756;51.354;15.754;2023-07-13T00:24:07;18.20;1.00
13375;DHT22;6756;51.354;15.754;2023-07-13T00:28:08;18.00;1.00
13375;DHT22;6756;51.354;15.754;2023-07-13T00:32:09;17.90;1.00
13375;DHT22;6756;51.354;15.754;2023-07-13T00:36:11;17.80;1.00
13375;DHT22;6756;51.354;15.754;2023-07-13T00:40:15;17.80;1.00
13375;DHT22;6756;51.354;15.754;2023-07-13T00:44:20;17.70;1.00
13375;DHT22;6756;51.354;15.754;2023-07-13T00:48:27;17.70;1.00
13375;DHT22;6756;51.354;15.754;2023-07-13T00:52:29;17.60;1.00
13375;DHT22;6756;51.354;15.754;2023-07-13T00:56:32;17.60;1.00
13375;DHT22;6756;51.354;15.754;2023-07-13T01:00:36;17.60;1.00
13375;DHT22;6756;51.354;15.754;2023-07-13T01:04:37;17.60;1.00
13375;DHT22;6756;51.354;15.754;2023-07-13T01:08:39;17.50;1.00
13375;DHT22;6756;51.354;15.754;2023-07-13T01:12:40;17.40;1.00
13375;DHT22;6756;51.354;15.754;2023-07-13T01:16:42;17.40;1.00
13375;DHT22;6756;51.354;15.754;2023-07-13T01:21:10;17.30;1.00
13375;DHT22;6756;51.354;15.754;2023-07-13T01:25:10;17.30;1.00
13375;DHT22;6756;51.354;15.754;2023-07-13T01:29:11;17.10;1.00
13375;DHT22;6756;51.354;15.754;2023-07-13T01:33:14;17.00;1.00
13375;DHT22;6756;51.354;15.754;2023-07-13T01:37:15;16.80;1.00
13375;DHT22;6756;51.354;15.754;2023-07-13T01:41:16;16.80;8.40
13375;DHT22;6756;51.354;15.754;2023-07-13T01:45:17;16.70;23.00
13375;DHT22;6756;51.354;15.754;2023-07-13T01:49:18;16.60;45.10
13375;DHT22;6756;51.354;15.754;2023-07-13T01:53:19;16.60;55.30
13375;DHT22;6756;51.354;15.754;2023-07-13T01:57:19;16.60;62.90
13375;DHT22;6756;51.354;15.754;2023-07-13T02:01:20;16.60;65.40
13375;DHT22;6756;51.354;15.754;2023-07-13T02:05:21;16.50;76.70
13375;DHT22;6756;51.354;15.754;2023-07-13T02:09:22;16.50;88.20
13375;DHT22;6756;51.354;15.754;2023-07-13T02:13:23;16.50;94.80
13375;DHT22;6756;51.354;15.754;2023-07-13T02:17:24;16.50;99.50
13375;DHT22;6756;51.354;15.754;2023-07-13T02:21:27;16.60;99.90
13375;DHT22;6756;51.354;15.754;2023-07-13T02:25:28;16.60;97.00
13375;DHT22;6756;51.354;15.754;2023-07-13T02:29:29;16.60;92.90
13375;DHT22;6756;51.354;15.754;2023-07-13T02:33:30;16.70;69.60
13375;DHT22;6756;51.354;15.754;2023-07-13T02:37:31;16.80;51.90
13375;DHT22;6756;51.354;15.754;2023-07-13T02:41:32;16.80;48.00
13375;DHT22;6756;51.354;15.754;2023-07-13T02:45:36;16.80;59.60
13375;DHT22;6756;51.354;15.754;2023-07-13T02:49:36;16.90;94.10
13375;DHT22;6756;51.354;15.754;2023-07-13T02:53:37;17.00;51.60
13375;DHT22;6756;51.354;15.754;2023-07-13T02:57:38;17.20;1.00
13375;DHT22;6756;51.354;15.754;2023-07-13T03:06:49;17.40;99.90
13375;DHT22;6756;51.354;15.754;2023-07-13T03:10:59;17.40;99.90
13375;DHT22;6756;51.354;15.754;2023-07-13T03:15:00;17.10;99.90
13375;DHT22;6756;51.354;15.754;2023-07-13T03:19:01;17.10;99.90
13375;DHT22;6756;51.354;15.754;2023-07-13T03:23:02;17.10;99.90
13375;DHT22;6756;51.354;15.754;2023-07-13T03:27:04;17.10;99.90
13375;DHT22;6756;51.354;15.754;2023-07-13T03:31:11;17.00;1.00
13375;DHT22;6756;51.354;15.754;2023-07-13T03:35:12;17.00;1.00
13375;DHT22;6756;51.354;15.754;2023-07-13T03:39:13;17.00;1.00
13375;DHT22;6756;51.354;15.754;2023-07-13T03:43:14;16.90;1.00
13375;DHT22;6756;51.354;15.754;2023-07-13T03:47:15;16.90;1.00
13375;DHT22;6756;51.354;15.754;2023-07-13T03:51:20;16.90;26.50
13375;DHT22;6756;51.354;15.754;2023-07-13T03:55:21;16.90;99.90
13375;DHT22;6756;51.354;15.754;2023-07-13T03:59:25;16.80;99.90
13375;DHT22;6756;51.354;15.754;2023-07-13T04:03:26;16.80;99.90
13375;DHT22;6756;51.354;15.754;2023-07-13T04:07:28;16.80;1.00
13375;DHT22;6756;51.354;15.754;2023-07-13T04:11:31;16.80;1.00
13375;DHT22;6756;51.354;15.754;2023-07-13T04:15:35;16.70;1.00
13375;DHT22;6756;51.354;15.754;2023-07-13T04:19:39;16.80;1.00
13375;DHT22;6756;51.354;15.754;2023-07-13T04:23:40;16.80;5.60
13375;DHT22;6756;51.354;15.754;2023-07-13T04:27:41;16.80;19.70
13375;DHT22;6756;51.354;15.754;2023-07-13T04:31:42;16.80;1.00
13375;DHT22;6756;51.354;15.754;2023-07-13T04:35:44;16.90;99.90
13375;DHT22;6756;51.354;15.754;2023-07-13T04:39:47;17.10;99.90
13375;DHT22;6756;51.354;15.754;2023-07-13T04:43:48;17.10;27.70
13375;DHT22;6756;51.354;15.754;2023-07-13T04:47:49;17.30;1.00
13375;DHT22;6756;51.354;15.754;2023-07-13T04:51:50;17.40;1.00
13375;DHT22;6756;51.354;15.754;2023-07-13T04:55:51;17.60;1.00
13375;DHT22;6756;51.354;15.754;2023-07-13T04:59:52;17.90;99.90
13375;DHT22;6756;51.354;15.754;2023-07-13T05:03:53;18.10;99.90
13375;DHT22;6756;51.354;15.754;2023-07-13T05:07:56;18.20;99.90
13375;DHT22;6756;51.354;15.754;2023-07-13T05:11:57;18.30;67.50
13375;DHT22;6756;51.354;15.754;2023-07-13T05:16:00;18.30;49.90
13375;DHT22;6756;51.354;15.754;2023-07-13T05:20:06;18.40;28.50
13375;DHT22;6756;51.354;15.754;2023-07-13T05:24:07;18.70;1.00
13375;DHT22;6756;51.354;15.754;2023-07-13T05:28:10;18.90;1.00
13375;DHT22;6756;51.354;15.754;2023-07-13T05:32:11;19.00;1.00
13375;DHT22;6756;51.354;15.754;2023-07-13T05:36:13;19.00;99.90
13375;DHT22;6756;51.354;15.754;2023-07-13T05:40:13;18.90;99.90
13375;DHT22;6756;51.354;15.754;2023-07-13T05:44:14;18.90;99.90
13375;DHT22;6756;51.354;15.754;2023-07-13T05:48:15;18.80;99.90
13375;DHT22;6756;51.354;15.754;2023-07-13T05:52:16;18.70;99.90
13375;DHT22;6756;51.354;15.754;2023-07-13T05:56:17;18.60;99.90
13375;DHT22;6756;51.354;15.754;2023-07-13T06:00:18;18.40;99.90
13375;DHT22;6756;51.354;15.754;2023-07-13T06:04:20;18.20;1.00
13375;DHT22;6756;51.354;15.754;2023-07-13T06:08:20;18.10;1.00
13375;DHT22;6756;51.354;15.754;2023-07-13T06:12:21;17.90;1.00
13375;DHT22;6756;51.354;15.754;2023-07-13T06:16:22;17.80;67.60
13375;DHT22;6756;51.354;15.754;2023-07-13T06:20:24;17.80;99.90
13375;DHT22;6756;51.354;15.754;2023-07-13T06:24:25;17.90;99.90
13375;DHT22;6756;51.354;15.754;2023-07-13T06:28:26;18.10;99.90
13375;DHT22;6756;51.354;15.754;2023-07-13T06:32:27;18.20;52.30
13375;DHT22;6756;51.354;15.754;2023-07-13T06:36:27;18.60;1.00
13375;DHT22;6756;51.354;15.754;2023-07-13T06:40:28;19.10;1.00
13375;DHT22;6756;51.354;15.754;2023-07-13T06:44:31;19.60;99.90
13375;DHT22;6756;51.354;15.754;2023-07-13T06:48:31;20.00;99.90
13375;DHT22;6756;51.354;15.754;2023-07-13T06:52:32;20.40;99.90
13375;DHT22;6756;51.354;15.754;2023-07-13T06:56:33;20.80;99.90
13375;DHT22;6756;51.354;15.754;2023-07-13T07:00:34;21.10;91.70
13375;DHT22;6756;51.354;15.754;2023-07-13T07:04:35;21.20;42.30
13375;DHT22;6756;51.354;15.754;2023-07-13T07:08:36;21.30;27.30
13375;DHT22;6756;51.354;15.754;2023-07-13T07:12:37;21.40;10.80
13375;DHT22;6756;51.354;15.754;2023-07-13T07:16:37;21.70;1.60
13375;DHT22;6756;51.354;15.754;2023-07-13T07:20:38;22.00;1.00
13375;DHT22;6756;51.354;15.754;2023-07-13T07:24:39;22.40;1.00
13375;DHT22;6756;51.354;15.754;2023-07-13T07:28:40;22.80;1.00
13375;DHT22;6756;51.354;15.754;2023-07-13T07:32:41;23.00;1.00
13375;DHT22;6756;51.354;15.754;2023-07-13T07:36:42;22.70;1.00
13375;DHT22;6756;51.354;15.754;2023-07-13T07:40:43;22.70;1.00
13375;DHT22;6756;51.354;15.754;2023-07-13T07:44:44;22.60;1.00
13375;DHT22;6756;51.354;15.754;2023-07-13T07:48:45;22.50;1.00
13375;DHT22;6756;51.354;15.754;2023-07-13T07:52:46;22.50;1.00
13375;DHT22;6756;51.354;15.754;2023-07-13T07:56:47;22.70;1.00
13375;DHT22;6756;51.354;15.754;2023-07-13T08:00:48;22.80;1.00
13375;DHT22;6756;51.354;15.754;2023-07-13T08:04:48;22.70;1.00
13375;DHT22;6756;51.354;15.754;2023-07-13T08:08:50;22.70;1.00
13375;DHT22;6756;51.354;15.754;2023-07-13T08:12:51;22.90;1.00
13375;DHT22;6756;51.354;15.754;2023-07-13T08:16:52;22.90;1.00
13375;DHT22;6756;51.354;15.754;2023-07-13T08:21:02;23.00;1.00
13375;DHT22;6756;51.354;15.754;2023-07-13T08:25:03;22.70;1.00
13375;DHT22;6756;51.354;15.754;2023-07-13T08:29:04;22.60;1.00
13375;DHT22;6756;51.354;15.754;2023-07-13T08:33:05;22.70;1.00
13375;DHT22;6756;51.354;15.754;2023-07-13T08:37:08;22.80;1.00
13375;DHT22;6756;51.354;15.754;2023-07-13T08:41:18;23.40;1.00
13375;DHT22;6756;51.354;15.754;2023-07-13T08:45:21;24.20;1.00
13375;DHT22;6756;51.354;15.754;2023-07-13T08:49:22;24.40;1.00
13375;DHT22;6756;51.354;15.754;2023-07-13T08:53:25;24.70;1.00
13375;DHT22;6756;51.354;15.754;2023-07-13T08:57:33;24.80;99.90
13375;DHT22;6756;51.354;15.754;2023-07-13T09:05:59;24.60;99.90
13375;DHT22;6756;51.354;15.754;2023-07-13T20:04:08;18.80;1.00
13375;DHT22;6756;51.354;15.754;2023-07-13T20:08:18;18.60;1.00
13375;DHT22;6756;51.354;15.754;2023-07-13T20:12:23;18.40;1.00
13375;DHT22;6756;51.354;15.754;2023-07-13T20:16:24;18.20;1.00
13375;DHT22;6756;51.354;15.754;2023-07-13T20:24:27;17.80;1.00
13375;DHT22;6756;51.354;15.754;2023-07-13T20:28:28;17.60;1.00
13375;DHT22;6756;51.354;15.754;2023-07-13T20:32:29;17.50;1.00
13375;DHT22;6756;51.354;15.754;2023-07-13T20:36:33;17.30;1.00
13375;DHT22;6756;51.354;15.754;2023-07-13T20:40:34;17.20;1.00
13375;DHT22;6756;51.354;15.754;2023-07-13T20:44:35;17.10;1.00
13375;DHT22;6756;51.354;15.754;2023-07-13T20:48:38;16.90;1.00
13375;DHT22;6756;51.354;15.754;2023-07-13T20:52:39;16.80;1.60
13375;DHT22;6756;51.354;15.754;2023-07-13T20:56:41;16.70;12.70
13375;DHT22;6756;51.354;15.754;2023-07-13T21:00:42;16.60;5.70
13375;DHT22;6756;51.354;15.754;2023-07-13T21:04:46;16.50;1.00
13375;DHT22;6756;51.354;15.754;2023-07-13T21:08:47;16.40;1.00
13375;DHT22;6756;51.354;15.754;2023-07-13T21:12:49;16.30;1.00
13375;DHT22;6756;51.354;15.754;2023-07-13T21:16:50;16.20;2.80
13375;DHT22;6756;51.354;15.754;2023-07-13T21:20:55;16.10;6.90
13375;DHT22;6756;51.354;15.754;2023-07-13T21:24:56;16.00;11.00
13375;DHT22;6756;51.354;15.754;2023-07-13T21:28:57;15.90;19.00
13375;DHT22;6756;51.354;15.754;2023-07-13T21:32:59;15.80;27.80
13375;DHT22;6756;51.354;15.754;2023-07-13T21:37:00;15.60;40.90
13375;DHT22;6756;51.354;15.754;2023-07-13T21:41:04;15.50;43.60
13375;DHT22;6756;51.354;15.754;2023-07-13T21:45:32;15.40;24.70
13375;DHT22;6756;51.354;15.754;2023-07-13T21:49:33;15.50;1.00
13375;DHT22;6756;51.354;15.754;2023-07-13T21:53:34;15.60;1.00
13375;DHT22;6756;51.354;15.754;2023-07-13T21:57:36;15.70;1.00
13375;DHT22;6756;51.354;15.754;2023-07-13T22:01:37;15.90;1.00
13375;DHT22;6756;51.354;15.754;2023-07-13T22:05:38;16.20;1.00
13375;DHT22;6756;51.354;15.754;2023-07-13T22:09:39;16.50;1.00
13375;DHT22;6756;51.354;15.754;2023-07-13T22:13:41;16.70;1.00
13375;DHT22;6756;51.354;15.754;2023-07-13T22:17:47;16.90;1.00
13375;DHT22;6756;51.354;15.754;2023-07-13T22:21:48;16.80;1.00
13375;DHT22;6756;51.354;15.754;2023-07-13T22:25:52;16.70;1.00
13375;DHT22;6756;51.354;15.754;2023-07-13T22:29:53;16.60;1.00
13375;DHT22;6756;51.354;15.754;2023-07-13T22:33:54;16.40;1.00
13375;DHT22;6756;51.354;15.754;2023-07-13T22:37:58;16.20;1.00
13375;DHT22;6756;51.354;15.754;2023-07-13T22:41:59;16.00;1.00
13375;DHT22;6756;51.354;15.754;2023-07-13T22:46:02;15.70;1.00
13375;DHT22;6756;51.354;15.754;2023-07-13T22:50:14;15.60;1.00
13375;DHT22;6756;51.354;15.754;2023-07-13T22:54:16;15.40;1.00
13375;DHT22;6756;51.354;15.754;2023-07-13T22:58:18;15.30;1.00
13375;DHT22;6756;51.354;15.754;2023-07-13T23:02:19;15.20;1.00
13375;DHT22;6756;51.354;15.754;2023-07-13T23:06:29;15.10;1.00
13375;DHT22;6756;51.354;15.754;2023-07-13T23:10:30;15.00;1.00
13375;DHT22;6756;51.354;15.754;2023-07-13T23:14:31;14.90;1.00
13375;DHT22;6756;51.354;15.754;2023-07-13T23:18:32;14.80;1.00
13375;DHT22;6756;51.354;15.754;2023-07-13T23:22:33;14.60;1.00
13375;DHT22;6756;51.354;15.754;2023-07-13T23:26:34;14.50;1.00
13375;DHT22;6756;51.354;15.754;2023-07-13T23:30:37;14.30;1.00
13375;DHT22;6756;51.354;15.754;2023-07-13T23:34:38;14.20;1.00
13375;DHT22;6756;51.354;15.754;2023-07-13T23:38:39;14.00;1.00
13375;DHT22;6756;51.354;15.754;2023-07-13T23:42:41;13.80;1.00
13375;DHT22;6756;51.354;15.754;2023-07-13T23:46:50;13.70;1.00
13375;DHT22;6756;51.354;15.754;2023-07-13T23:50:51;13.60;1.00
13375;DHT22;6756;51.354;15.754;2023-07-13T23:54:53;13.60;1.00
13375;DHT22;6756;51.354;15.754;2023-07-13T23:58:54;13.50;1.50
